Terminal Aerodrome Forecast
Issued by NWS Sterling, VA

Current Version | Previous Version | Graphics & Text | Print | Product List | Glossary On
Versions: 1 2 3 4 5 6 7 8 9 10 11 12 13 14 15 16 17 18 19 20 21 22 23 24 25 26 27
000
FTUS41 KLWX 162300
TAFDCA
TAF
KDCA 162322Z 1700/1724 20004KT 3SM -DZ OVC006
     FM170200 23004KT 5SM BR OVC008
     FM170400 25005KT P6SM BKN015
     FM170600 26006KT P6SM BKN025
     FM170700 26006KT P6SM BKN035
     FM170800 26007KT P6SM SCT045
     FM171500 28012G22KT P6SM SCT045=

USA.gov is the U.S. government's official web portal to all federal, state and local government web resources and services.